Time;durP1;ratioP1;P1;durP2;ratioP2;P2;SDS_P1;SDS_P2;PMS_P1;PMS_P2;Temp;Humidity;BMP_temperature;BMP_pressure;BME280_temperature;BME280_humidity;BME280_pressure;Samples;Min_cycle;Max_cycle;Signal;HPM_P1;HPM_P2
2022/10/22 00:02:23;;;;;;;2.30;0.95;;;;;;;22.43;48.15;100689.94;5075194;28;20521;-63
2022/10/22 00:04:49;;;;;;;4.78;1.20;;;;;;;22.40;48.31;100682.16;5075106;28;20469;-62
2022/10/22 00:07:18;;;;;;;1.63;1.00;;;;;;;22.47;49.13;100688.44;5057150;28;20481;-62
2022/10/22 00:09:44;;;;;;;5.68;1.33;;;;;;;22.48;48.47;100692.84;5040463;28;20487;-62
2022/10/22 00:12:10;;;;;;;2.13;1.25;;;;;;;22.49;48.82;100696.44;5057085;28;20086;-62
2022/10/22 00:14:36;;;;;;;2.53;1.38;;;;;;;22.49;48.75;100699.16;5074926;28;20032;-61
2022/10/22 00:17:02;;;;;;;1.65;0.68;;;;;;;22.45;49.58;100685.09;5057044;28;20097;-61
2022/10/22 00:19:27;;;;;;;3.85;1.00;;;;;;;22.57;48.74;100705.25;5074781;28;20025;-61
2022/10/22 00:21:53;;;;;;;4.53;1.00;;;;;;;22.59;48.62;100692.22;5074759;28;20021;-61
2022/10/22 00:24:18;;;;;;;1.45;0.80;;;;;;;22.60;48.87;100688.47;5040424;28;20072;-61
2022/10/22 00:26:44;;;;;;;4.40;1.15;;;;;;;22.64;49.54;100683.41;5074605;28;20390;-60
2022/10/22 00:29:09;;;;;;;2.05;1.17;;;;;;;22.67;48.87;100693.13;5074620;28;20528;-61
2022/10/22 00:31:35;;;;;;;3.67;0.98;;;;;;;22.65;48.78;100678.81;5074648;28;20052;-60
2022/10/22 00:34:00;;;;;;;5.57;1.20;;;;;;;22.69;49.49;100686.38;5056678;28;20390;-61
2022/10/22 00:36:26;;;;;;;4.68;1.20;;;;;;;22.70;48.41;100692.69;5056628;28;20028;-60
2022/10/22 00:38:51;;;;;;;4.70;0.98;;;;;;;22.70;49.26;100687.22;5056596;28;20046;-60
2022/10/22 00:41:17;;;;;;;2.72;0.82;;;;;;;22.69;49.28;100691.84;5056883;28;20105;-61
2022/10/22 00:44:03;;;;;;;4.30;0.98;;;;;;;22.70;48.43;100688.03;5074398;28;20029;-62
2022/10/22 00:46:29;;;;;;;2.50;1.00;;;;;;;22.69;49.16;100694.56;5039646;28;20482;-61
2022/10/22 00:48:56;;;;;;;7.03;1.00;;;;;;;22.69;49.11;100696.47;5056215;28;20025;-60
2022/10/22 00:51:23;;;;;;;2.95;0.93;;;;;;;22.68;48.49;100695.63;5056410;28;20482;-62
2022/10/22 00:53:54;;;;;;;7.05;0.95;;;;;;;22.67;48.45;100690.38;5056346;28;20021;-60
2022/10/22 00:56:22;;;;;;;3.53;0.90;;;;;;;22.66;48.28;100685.97;5074092;28;20062;-61
2022/10/22 00:58:52;;;;;;;2.67;1.13;;;;;;;22.65;48.72;100689.72;5056075;28;20539;-61
2022/10/22 01:01:28;;;;;;;3.95;1.25;;;;;;;22.65;48.83;100689.72;5056158;28;20172;-61
2022/10/22 01:03:53;;;;;;;3.22;1.08;;;;;;;22.50;48.96;100666.19;5056080;28;20052;-60
2022/10/22 01:06:27;;;;;;;6.47;1.23;;;;;;;22.58;49.36;100687.81;5073853;28;20055;-60
2022/10/22 01:09:08;;;;;;;4.72;1.13;;;;;;;22.56;48.40;100681.72;5074172;28;20040;-61
2022/10/22 01:11:48;;;;;;;3.80;1.20;;;;;;;22.55;48.54;100684.69;5055895;28;20026;-61
2022/10/22 01:14:24;;;;;;;2.08;1.00;;;;;;;22.55;49.15;100685.53;5055644;28;21214;-61
2022/10/22 01:17:00;;;;;;;4.65;0.90;;;;;;;22.51;49.24;100680.66;5055934;28;20026;-61
2022/10/22 01:20:03;;;;;;;3.80;0.95;;;;;;;22.55;49.52;100685.53;5055741;28;20379;-61
2022/10/22 01:22:34;;;;;;;9.75;1.05;;;;;;;22.55;49.04;100690.13;5006252;28;20040;-60
2022/10/22 01:25:28;;;;;;;2.90;0.85;;;;;;;22.52;49.42;100691.41;5073487;28;20023;-61
2022/10/22 01:27:59;;;;;;;5.57;0.93;;;;;;;22.53;49.34;100676.69;5073756;28;20029;-62
2022/10/22 01:30:25;;;;;;;5.20;1.20;;;;;;;22.55;49.54;100677.34;5073622;28;20485;-61
2022/10/22 01:32:54;;;;;;;1.23;0.85;;;;;;;22.54;48.79;100683.84;5055655;28;20105;-61
2022/10/22 01:35:24;;;;;;;1.77;1.10;;;;;;;22.54;49.01;100681.09;5055701;28;20020;-61
2022/10/22 01:37:53;;;;;;;5.78;1.45;;;;;;;22.56;49.59;100686.34;5055988;28;20432;-61
2022/10/22 01:40:19;;;;;;;3.15;0.93;;;;;;;22.56;49.40;100669.94;5055443;28;20055;-62
2022/10/22 01:42:58;;;;;;;5.40;1.90;;;;;;;22.56;49.30;100675.41;5055471;28;20063;-61
2022/10/22 01:45:23;;;;;;;2.63;0.90;;;;;;;22.47;48.61;100666.59;5073823;28;20028;-61
2022/10/22 01:47:57;;;;;;;5.03;1.15;;;;;;;22.53;48.68;100676.69;5055440;28;20038;-61
2022/10/22 01:50:37;;;;;;;3.58;1.27;;;;;;;22.43;48.83;100667.25;5055626;28;20067;-61
2022/10/22 01:53:18;;;;;;;5.90;1.42;;;;;;;22.50;49.66;100688.03;5055376;28;20137;-61
2022/10/22 01:56:05;;;;;;;3.17;1.40;;;;;;;22.49;49.59;100686.38;5055368;28;20540;-61
2022/10/22 01:58:42;;;;;;;4.90;1.52;;;;;;;22.50;48.90;100688.03;5073177;28;20020;-62
2022/10/22 02:01:29;;;;;;;4.15;1.42;;;;;;;22.47;48.69;100674.78;5073165;28;20028;-61
2022/10/22 02:04:03;;;;;;;5.13;1.17;;;;;;;22.52;49.71;100694.13;5073191;28;20506;-61
2022/10/22 02:06:30;;;;;;;7.38;1.83;;;;;;;22.54;48.77;100694.75;5059652;28;20134;-61
2022/10/22 02:08:55;;;;;;;1.45;1.23;;;;;;;22.55;49.74;100682.78;5061833;28;20029;-61
2022/10/22 02:11:20;;;;;;;2.30;1.13;;;;;;;22.56;49.62;100681.72;5079769;28;20028;-60
2022/10/22 02:13:50;;;;;;;3.05;1.20;;;;;;;22.53;49.57;100668.50;5079756;28;20025;-61
2022/10/22 02:16:29;;;;;;;5.82;1.23;;;;;;;22.57;48.80;100667.03;5079722;28;20034;-61
2022/10/22 02:18:57;;;;;;;2.83;1.20;;;;;;;22.53;49.21;100665.75;5061837;28;20394;-61
2022/10/22 02:21:23;;;;;;;4.82;1.10;;;;;;;22.55;49.21;100669.16;5045238;28;20470;-62
2022/10/22 02:23:48;;;;;;;1.75;0.85;;;;;;;22.54;49.65;100667.44;5061777;28;20036;-60
2022/10/22 02:26:20;;;;;;;4.13;1.67;;;;;;;22.59;48.82;100673.13;5062089;28;20085;-60
2022/10/22 02:29:06;;;;;;;4.40;1.55;;;;;;;22.60;48.62;100673.97;5061740;28;20025;-61
2022/10/22 02:31:35;;;;;;;3.60;1.50;;;;;;;22.55;48.79;100669.16;5062072;28;20489;-62
2022/10/22 02:34:06;;;;;;;2.58;1.48;;;;;;;22.52;49.20;100669.56;5079628;28;20028;-61
2022/10/22 02:36:32;;;;;;;5.97;1.20;;;;;;;22.57;48.86;100683.41;5062075;28;20035;-61
2022/10/22 02:38:58;;;;;;;3.45;1.08;;;;;;;22.58;49.16;100690.53;5061534;28;20032;-61
2022/10/22 02:41:23;;;;;;;3.15;1.10;;;;;;;22.58;50.04;100685.06;5061731;28;20107;-60
2022/10/22 02:43:55;;;;;;;4.32;0.80;;;;;;;22.61;49.91;100687.38;5079475;28;20113;-62
2022/10/22 02:46:21;;;;;;;3.07;1.47;;;;;;;22.64;49.35;100688.88;5061653;28;20422;-62
2022/10/22 02:48:46;;;;;;;4.05;1.00;;;;;;;22.62;49.45;100697.28;5061593;28;20354;-62
2022/10/22 02:51:12;;;;;;;4.20;1.23;;;;;;;22.62;49.37;100688.22;5079378;28;20039;-60
2022/10/22 02:53:37;;;;;;;3.97;1.35;;;;;;;22.68;49.54;100689.31;5079331;28;20028;-60
2022/10/22 02:56:03;;;;;;;4.40;1.00;;;;;;;22.69;49.80;100696.47;5079226;28;20119;-62
2022/10/22 02:58:28;;;;;;;3.95;1.30;;;;;;;22.68;49.19;100695.63;5079399;28;20043;-60
2022/10/22 03:00:53;;;;;;;5.50;1.17;;;;;;;22.57;50.05;100675.22;5079269;28;20424;-61
2022/10/22 03:03:19;;;;;;;6.65;2.15;;;;;;;22.64;50.07;100688.88;5079217;28;20435;-60
2022/10/22 03:05:44;;;;;;;2.83;1.10;;;;;;;22.65;49.98;100695.19;5079215;28;20052;-61
2022/10/22 03:08:09;;;;;;;5.38;1.15;;;;;;;22.64;50.32;100688.88;5079183;28;20119;-61
2022/10/22 03:10:35;;;;;;;4.93;1.13;;;;;;;22.64;49.47;100697.06;5079557;28;20024;-61
2022/10/22 03:13:00;;;;;;;6.45;1.00;;;;;;;22.50;49.60;100685.28;5079285;28;20028;-61
2022/10/22 03:15:26;;;;;;;3.03;1.52;;;;;;;22.62;49.53;100713.66;5079178;28;20033;-62
2022/10/22 03:17:51;;;;;;;9.50;1.42;;;;;;;22.61;50.39;100717.44;5075857;28;20032;-61
2022/10/22 03:20:16;;;;;;;1.60;1.38;;;;;;;22.60;50.43;100723.09;5076016;28;20020;-61
2022/10/22 03:22:42;;;;;;;2.83;1.05;;;;;;;22.58;50.52;100723.31;5075878;28;20154;-61
2022/10/22 03:25:11;;;;;;;6.85;1.42;;;;;;;22.55;49.60;100721.03;5058102;28;20481;-62
2022/10/22 03:27:37;;;;;;;4.18;1.10;;;;;;;22.57;49.72;100726.25;5058040;28;20033;-61
2022/10/22 03:30:03;;;;;;;8.52;1.30;;;;;;;22.49;50.04;100713.66;5076149;28;20074;-60
2022/10/22 03:32:29;;;;;;;6.13;1.98;;;;;;;22.57;50.50;100729.84;5057802;28;20422;-62
2022/10/22 03:34:54;;;;;;;3.67;1.80;;;;;;;22.59;50.38;100735.06;5075961;28;20113;-61
2022/10/22 03:37:20;;;;;;;5.35;1.20;;;;;;;22.58;49.65;100728.75;5075615;28;20028;-61
2022/10/22 03:39:45;;;;;;;4.60;1.20;;;;;;;22.56;50.71;100730.88;5075726;28;20029;-63
2022/10/22 03:42:12;;;;;;;8.35;1.23;;;;;;;22.55;49.73;100734.69;5044880;28;20389;-61
2022/10/22 03:44:39;;;;;;;4.60;1.40;;;;;;;22.52;50.89;100735.09;5075737;28;20440;-61
2022/10/22 03:47:04;;;;;;;6.47;1.40;;;;;;;22.54;50.62;100738.44;5058114;28;20025;-61
2022/10/22 03:49:30;;;;;;;3.90;1.52;;;;;;;22.55;49.75;100736.56;5057677;28;20036;-60
2022/10/22 03:52:03;;;;;;;3.42;1.50;;;;;;;22.51;50.87;100749.78;5075530;28;20063;-61
2022/10/22 03:54:29;;;;;;;10.18;1.70;;;;;;;22.45;50.02;100734.22;5075580;28;20024;-61
2022/10/22 03:56:54;;;;;;;4.05;1.33;;;;;;;22.51;50.74;100748.94;5057470;28;20112;-60
2022/10/22 03:59:19;;;;;;;6.72;1.50;;;;;;;22.48;50.65;100752.94;5075059;28;20089;-61
2022/10/22 04:01:45;;;;;;;4.10;1.95;;;;;;;22.49;50.24;100751.03;5057297;28;20036;-60
2022/10/22 04:04:10;;;;;;;2.50;1.13;;;;;;;22.48;50.08;100757.53;5075505;28;20033;-60
2022/10/22 04:06:35;;;;;;;3.55;1.80;;;;;;;22.47;49.80;100758.59;5075068;28;20056;-60
2022/10/22 04:09:01;;;;;;;7.82;1.30;;;;;;;22.46;50.06;100763.22;5075075;28;20044;-60
2022/10/22 04:11:26;;;;;;;3.58;1.20;;;;;;;22.45;50.10;100772.44;5075270;28;20043;-61
2022/10/22 04:13:52;;;;;;;6.68;1.35;;;;;;;22.44;50.81;100769.94;5075007;28;20527;-60
2022/10/22 04:16:20;;;;;;;17.80;2.08;;;;;;;22.42;50.34;100778.31;5040314;28;20371;-61
2022/10/22 04:18:47;;;;;;;5.57;1.42;;;;;;;22.40;49.99;100765.94;5074926;28;20077;-60
2022/10/22 04:21:15;;;;;;;2.70;1.30;;;;;;;22.44;50.04;100773.53;5074828;28;20028;-61
2022/10/22 04:23:49;;;;;;;6.90;1.67;;;;;;;22.43;51.05;100771.81;5057270;28;20046;-60
2022/10/22 04:26:15;;;;;;;6.50;1.50;;;;;;;22.40;50.62;100769.50;5074708;28;20063;-61
2022/10/22 04:28:41;;;;;;;8.32;1.25;;;;;;;22.42;50.07;100778.31;5056627;28;20085;-61
2022/10/22 04:31:12;;;;;;;5.72;1.73;;;;;;;22.40;50.64;100780.44;5074689;28;20029;-61
2022/10/22 04:33:38;;;;;;;5.35;1.45;;;;;;;22.39;50.56;100784.19;5074861;28;20082;-60
2022/10/22 04:36:11;;;;;;;5.10;1.48;;;;;;;22.37;50.86;100782.72;5056761;28;20032;-61
2022/10/22 04:38:37;;;;;;;6.60;1.45;;;;;;;22.34;51.06;100786.72;5074487;28;20029;-60
2022/10/22 04:41:19;;;;;;;7.63;2.13;;;;;;;22.35;51.22;100793.00;5074548;28;20064;-61
2022/10/22 04:43:44;;;;;;;3.80;0.90;;;;;;;22.35;51.11;100788.41;5074616;28;20081;-61
2022/10/22 04:46:11;;;;;;;6.70;1.13;;;;;;;22.36;50.92;100791.97;5074547;28;20381;-61
2022/10/22 04:48:39;;;;;;;3.90;1.27;;;;;;;22.32;50.60;100783.34;5056704;28;20025;-60
2022/10/22 04:51:05;;;;;;;3.17;1.02;;;;;;;22.32;50.51;100787.97;5056498;28;20078;-61
2022/10/22 04:53:34;;;;;;;6.53;1.38;;;;;;;22.32;49.93;100794.28;5056649;28;20516;-61
2022/10/22 04:56:11;;;;;;;4.22;0.98;;;;;;;22.31;50.68;100791.72;5074245;28;20081;-61
2022/10/22 04:58:38;;;;;;;5.25;1.20;;;;;;;22.33;50.90;100795.97;5074484;28;20037;-61
2022/10/22 05:01:14;;;;;;;6.10;1.55;;;;;;;22.32;50.62;100802.47;5073984;28;20017;-61
2022/10/22 05:03:40;;;;;;;5.28;0.90;;;;;;;22.31;51.10;100798.03;5073976;28;20489;-61
2022/10/22 05:06:06;;;;;;;2.63;1.27;;;;;;;22.29;50.80;100802.88;5055825;28;20052;-61
2022/10/22 05:08:32;;;;;;;8.00;1.35;;;;;;;22.30;50.64;100807.28;5056314;28;20085;-61
2022/10/22 05:10:57;;;;;;;3.72;1.27;;;;;;;22.32;51.06;100809.81;5056032;28;20111;-61
2022/10/22 05:13:22;;;;;;;1.67;0.98;;;;;;;22.23;50.39;100795.50;5073907;28;20505;-61
2022/10/22 05:15:48;;;;;;;7.10;1.17;;;;;;;22.20;50.79;100795.06;5073765;28;20024;-61
2022/10/22 05:18:13;;;;;;;4.43;1.35;;;;;;;22.28;50.07;100809.38;5039133;28;20036;-61
2022/10/22 05:20:39;;;;;;;3.20;0.85;;;;;;;22.29;50.77;100808.31;5056044;28;20407;-60
2022/10/22 05:23:05;;;;;;;2.40;0.95;;;;;;;22.28;50.13;100817.56;5056011;28;20111;-60
2022/10/22 05:25:30;;;;;;;2.92;1.10;;;;;;;22.10;49.89;100797.34;5073590;28;20063;-61
2022/10/22 05:27:56;;;;;;;1.90;0.93;;;;;;;22.23;50.09;100817.34;5073662;28;20048;-60
2022/10/22 05:30:21;;;;;;;5.72;1.13;;;;;;;22.23;50.45;100819.22;5055718;28;20082;-61
2022/10/22 05:32:46;;;;;;;7.75;0.98;;;;;;;22.25;50.85;100815.22;5073442;28;20067;-61
2022/10/22 05:35:12;;;;;;;2.33;1.00;;;;;;;22.25;49.82;100819.88;5073422;28;20393;-61
2022/10/22 05:37:37;;;;;;;1.75;1.02;;;;;;;22.21;51.01;100824.91;5055525;28;20078;-60
2022/10/22 05:40:04;;;;;;;3.50;1.17;;;;;;;22.19;50.02;100823.41;5072826;28;20036;-61
2022/10/22 05:42:32;;;;;;;8.73;1.30;;;;;;;22.19;50.02;100821.53;5073195;28;20032;-61
2022/10/22 05:44:57;;;;;;;2.53;0.93;;;;;;;22.19;50.80;100824.25;5073665;28;20381;-62
2022/10/22 05:47:23;;;;;;;7.05;1.15;;;;;;;22.17;49.81;100828.22;5055497;28;20037;-62
2022/10/22 05:49:48;;;;;;;3.30;1.90;;;;;;;22.14;50.50;100834.94;5053182;28;20443;-61
2022/10/22 05:52:13;;;;;;;3.38;0.80;;;;;;;22.15;50.46;100824.84;5053287;28;20032;-61
2022/10/22 05:54:39;;;;;;;4.20;0.88;;;;;;;22.17;50.82;100826.34;5053124;28;20078;-60
2022/10/22 05:57:04;;;;;;;2.70;1.20;;;;;;;22.19;49.75;100824.25;5053088;28;20033;-61
2022/10/22 05:59:30;;;;;;;2.55;0.88;;;;;;;22.17;50.22;100828.22;5053031;28;20170;-60
2022/10/22 06:01:55;;;;;;;9.23;1.00;;;;;;;22.17;50.37;100823.59;5053072;28;20040;-61
2022/10/22 06:04:20;;;;;;;6.93;1.52;;;;;;;22.17;49.63;100828.22;5052944;28;20496;-60
2022/10/22 06:06:48;;;;;;;3.15;0.98;;;;;;;22.16;49.85;100832.00;5035025;28;20040;-61
2022/10/22 06:09:16;;;;;;;2.67;1.33;;;;;;;22.14;49.89;100834.94;5053056;28;20396;-60
2022/10/22 06:11:41;;;;;;;2.90;0.85;;;;;;;22.13;49.95;100833.25;5053051;28;20053;-60
2022/10/22 06:14:08;;;;;;;3.30;0.85;;;;;;;22.11;50.20;100832.59;5053034;28;20060;-61
2022/10/22 06:16:33;;;;;;;5.60;1.33;;;;;;;22.12;49.85;100841.63;5035284;28;20171;-61
2022/10/22 06:19:02;;;;;;;6.93;1.17;;;;;;;22.11;49.78;100840.78;5052916;28;20056;-61
2022/10/22 06:21:29;;;;;;;2.47;0.73;;;;;;;22.12;49.51;100847.94;5053171;28;20483;-61
2022/10/22 06:23:58;;;;;;;6.97;1.08;;;;;;;22.11;50.33;100848.97;5052966;28;20391;-60
2022/10/22 06:26:24;;;;;;;3.60;0.70;;;;;;;22.05;49.81;100841.63;5035085;28;20055;-60
2022/10/22 06:28:50;;;;;;;4.35;0.98;;;;;;;22.09;49.78;100856.53;5052915;28;20515;-60
2022/10/22 06:31:15;;;;;;;4.32;0.93;;;;;;;22.10;49.53;100871.88;5052942;28;20037;-60
2022/10/22 06:33:43;;;;;;;1.73;0.80;;;;;;;22.13;50.46;100871.47;5035140;28;20117;-60
2022/10/22 06:36:14;;;;;;;1.90;0.82;;;;;;;22.16;49.78;100875.69;5052824;28;20075;-61
2022/10/22 06:38:40;;;;;;;3.22;1.08;;;;;;;22.20;50.53;100876.94;5052804;28;20032;-61
2022/10/22 06:41:08;;;;;;;3.75;0.80;;;;;;;22.23;50.41;100885.56;5052785;28;20387;-61
2022/10/22 06:43:33;;;;;;;3.47;1.58;;;;;;;22.26;49.57;100893.34;5052751;28;20033;-60
2022/10/22 06:46:07;;;;;;;5.93;1.40;;;;;;;22.29;50.22;100898.41;5052605;28;20394;-61
2022/10/22 06:48:34;;;;;;;4.93;1.48;;;;;;;22.34;49.16;100901.34;5052722;28;20485;-60
2022/10/22 06:51:01;;;;;;;7.15;1.60;;;;;;;22.39;49.45;100904.31;5035226;28;20024;-61
2022/10/22 06:53:27;;;;;;;6.50;1.65;;;;;;;22.47;49.08;100906.84;5056392;28;20025;-61
2022/10/22 06:55:52;;;;;;;1.95;0.52;;;;;;;22.49;50.20;100907.50;5056567;28;20115;-61
2022/10/22 06:58:17;;;;;;;4.03;1.00;;;;;;;22.50;49.14;100916.56;5056369;28;20036;-61
2022/10/22 07:00:43;;;;;;;8.38;1.30;;;;;;;22.51;49.15;100918.22;5056459;28;20116;-61
2022/10/22 07:03:12;;;;;;;2.13;0.55;;;;;;;22.54;49.20;100923.28;5056431;28;20040;-61
2022/10/22 07:05:37;;;;;;;10.68;1.67;;;;;;;22.47;49.64;100917.78;5056178;28;20037;-61
2022/10/22 07:08:02;;;;;;;3.97;0.80;;;;;;;22.52;50.00;100931.69;5056250;28;20547;-60
2022/10/22 07:10:28;;;;;;;4.97;1.30;;;;;;;22.51;48.99;100935.44;5056394;28;20040;-60
2022/10/22 07:12:53;;;;;;;7.15;1.08;;;;;;;22.51;49.93;100934.59;5056256;28;20033;-60
2022/10/22 07:15:18;;;;;;;5.38;0.90;;;;;;;22.50;48.96;100944.66;5038386;28;20033;-60
2022/10/22 07:17:44;;;;;;;5.32;1.40;;;;;;;22.48;49.93;100946.78;5056138;28;20057;-60
2022/10/22 07:20:09;;;;;;;4.63;1.00;;;;;;;22.46;50.00;100943.41;5059533;28;20025;-61
2022/10/22 07:22:35;;;;;;;3.17;1.15;;;;;;;22.49;49.17;100953.94;5066587;28;20029;-61
2022/10/22 07:25:00;;;;;;;4.97;0.85;;;;;;;22.50;50.07;100952.88;5066571;28;20036;-61
2022/10/22 07:27:26;;;;;;;1.67;0.57;;;;;;;22.52;50.00;100961.72;5065928;28;20032;-60
2022/10/22 07:32:39;;;;;;;7.25;1.00;;;;;;;22.53;49.83;100971.56;5065061;22;20506;-61
2022/10/22 07:35:05;;;;;;;4.85;0.98;;;;;;;22.51;49.34;100979.13;5045976;28;20033;-62
2022/10/22 07:37:30;;;;;;;8.65;1.45;;;;;;;22.48;48.85;100974.06;5063360;28;20027;-60
2022/10/22 07:39:55;;;;;;;6.82;1.50;;;;;;;22.66;49.22;100983.66;5032071;28;20531;-61
2022/10/22 07:42:21;;;;;;;5.53;1.05;;;;;;;22.90;49.17;100988.56;5063262;28;20033;-61
2022/10/22 07:44:46;;;;;;;4.88;0.93;;;;;;;23.13;48.50;100989.03;5063901;28;20100;-61
2022/10/22 07:47:11;;;;;;;2.67;1.42;;;;;;;23.19;49.00;100988.22;5064488;28;20088;-61
2022/10/22 07:49:37;;;;;;;2.28;0.52;;;;;;;23.32;47.99;100988.22;5019657;28;20028;-61
2022/10/22 07:52:02;;;;;;;2.97;0.70;;;;;;;23.65;47.98;100989.13;5062952;28;20095;-61
2022/10/22 07:54:28;;;;;;;7.78;0.70;;;;;;;23.91;47.62;100992.91;5063292;28;20029;-61
2022/10/22 07:56:53;;;;;;;3.05;0.77;;;;;;;23.78;48.07;101000.06;5063889;28;20035;-61
2022/10/22 07:59:18;;;;;;;1.92;0.95;;;;;;;23.71;48.42;101009.34;5053967;28;20036;-61
2022/10/22 08:01:45;;;;;;;4.47;1.20;;;;;;;23.67;48.87;101010.81;5054329;28;20474;-60
2022/10/22 08:04:11;;;;;;;3.22;0.93;;;;;;;23.61;48.31;101012.50;5063242;28;20091;-61
2022/10/22 08:06:37;;;;;;;4.55;0.95;;;;;;;23.57;48.29;101024.91;5063804;28;20482;-62
2022/10/22 08:09:03;;;;;;;3.42;1.20;;;;;;;23.50;48.52;101018.59;5064887;28;20028;-61
2022/10/22 08:11:28;;;;;;;7.55;1.05;;;;;;;23.48;48.05;101026.16;5053883;28;20035;-61
2022/10/22 08:13:54;;;;;;;5.93;1.05;;;;;;;23.46;48.52;101025.53;5066930;28;20081;-61
2022/10/22 08:16:19;;;;;;;2.47;0.70;;;;;;;23.47;48.82;101029.94;5074996;28;20032;-60
2022/10/22 08:18:44;;;;;;;5.53;0.80;;;;;;;23.49;47.97;101033.31;5056968;28;20031;-60
2022/10/22 08:21:11;;;;;;;2.90;0.73;;;;;;;23.52;48.21;101032.03;5056857;28;20024;-61
2022/10/22 08:23:36;;;;;;;4.32;0.85;;;;;;;23.48;48.76;101048.03;5074754;28;20039;-61
2022/10/22 08:26:02;;;;;;;2.42;0.95;;;;;;;23.44;48.07;101045.94;5074740;28;20033;-61
2022/10/22 08:28:28;;;;;;;2.40;1.02;;;;;;;23.44;48.89;101046.78;5074796;28;20035;-61
2022/10/22 08:30:54;;;;;;;5.82;1.05;;;;;;;23.43;48.46;101050.53;5056608;28;20072;-61
2022/10/22 08:33:19;;;;;;;3.85;0.90;;;;;;;23.27;47.84;101029.03;5074766;28;20029;-61
2022/10/22 08:35:51;;;;;;;7.10;1.25;;;;;;;23.43;48.11;101055.16;5056762;28;20093;-60
2022/10/22 08:38:17;;;;;;;4.83;1.10;;;;;;;23.42;48.52;101058.97;5074421;28;20020;-61
2022/10/22 08:40:47;;;;;;;2.75;0.77;;;;;;;23.39;48.18;101060.22;5074533;28;20372;-61
2022/10/22 08:43:34;;;;;;;5.07;0.93;;;;;;;23.36;48.74;101065.22;5056649;28;20036;-61
2022/10/22 08:46:19;;;;;;;4.72;1.38;;;;;;;23.33;48.42;101055.56;5074344;28;20029;-62
2022/10/22 08:48:48;;;;;;;8.55;0.80;;;;;;;23.32;47.97;101070.25;5039713;28;20020;-61
2022/10/22 08:51:19;;;;;;;10.48;1.13;;;;;;;23.33;48.69;101058.28;5074288;28;20039;-61
2022/10/22 08:53:52;;;;;;;5.35;1.00;;;;;;;23.49;48.41;101066.13;5074321;28;20020;-61
2022/10/22 08:56:20;;;;;;;5.35;1.00;;;;;;;23.65;47.92;101065.72;5074215;28;20048;-61
2022/10/22 08:58:58;;;;;;;1.77;0.75;;;;;;;23.76;47.20;101073.31;5056281;28;20494;-61
2022/10/22 09:01:37;;;;;;;3.90;1.70;;;;;;;23.82;47.88;101073.53;5056183;28;20073;-61
2022/10/22 09:04:24;;;;;;;5.32;1.10;;;;;;;23.85;48.11;101073.09;5056238;28;20601;-61
2022/10/22 09:06:50;;;;;;;6.03;1.15;;;;;;;23.96;47.94;101084.28;5056763;28;20453;-61
2022/10/22 09:09:17;;;;;;;2.80;0.98;;;;;;;24.02;47.33;101079.84;5056121;28;20028;-61
2022/10/22 09:11:45;;;;;;;2.28;0.80;;;;;;;24.05;47.55;101082.16;5073806;28;20045;-61
2022/10/22 09:14:23;;;;;;;8.13;0.68;;;;;;;24.04;47.40;101092.28;5056161;28;20020;-61
2022/10/22 09:17:13;;;;;;;1.67;0.65;;;;;;;24.12;47.35;101094.00;5055338;28;20428;-61
2022/10/22 09:19:44;;;;;;;5.10;0.90;;;;;;;24.12;47.46;101099.47;5039259;28;20104;-61
2022/10/22 09:22:27;;;;;;;2.30;0.68;;;;;;;24.16;47.67;101100.72;5073814;28;20478;-61
2022/10/22 09:25:01;;;;;;;1.83;0.50;;;;;;;24.19;47.51;101100.31;5073678;28;20075;-60
2022/10/22 09:27:29;;;;;;;8.55;0.68;;;;;;;24.22;47.71;101113.59;5055907;28;20044;-60
2022/10/22 09:29:54;;;;;;;2.65;0.75;;;;;;;24.25;47.35;101110.41;5073535;28;20024;-60
2022/10/22 09:32:20;;;;;;;5.55;0.40;;;;;;;24.30;47.15;101108.72;5073278;28;20078;-60
2022/10/22 09:34:46;;;;;;;7.75;0.90;;;;;;;24.37;47.07;101108.75;5073555;28;20035;-60
2022/10/22 09:37:16;;;;;;;4.18;0.85;;;;;;;24.45;47.23;101111.25;5055668;28;20056;-60
2022/10/22 09:39:47;;;;;;;3.42;0.40;;;;;;;24.45;46.81;101108.50;5073306;28;20027;-60
2022/10/22 09:42:15;;;;;;;3.05;1.00;;;;;;;24.47;46.44;101124.72;5073525;28;20036;-60
2022/10/22 09:44:40;;;;;;;4.15;0.52;;;;;;;24.46;46.47;101117.56;5073363;28;20024;-60
2022/10/22 09:47:10;;;;;;;5.97;1.25;;;;;;;24.45;46.62;101132.31;5073415;28;20024;-60
2022/10/22 09:49:36;;;;;;;3.60;0.50;;;;;;;24.44;46.86;101128.72;5055554;28;20021;-60
2022/10/22 09:52:02;;;;;;;3.38;0.68;;;;;;;24.45;46.70;101133.16;5073490;28;20120;-61
2022/10/22 09:54:30;;;;;;;5.07;1.60;;;;;;;24.51;46.69;101137.75;5055531;28;20437;-60
2022/10/22 09:57:04;;;;;;;7.65;1.00;;;;;;;24.58;46.72;101133.13;5073221;28;20028;-60
2022/10/22 09:59:32;;;;;;;3.42;0.98;;;;;;;24.80;46.06;101148.31;5073274;28;20489;-60
2022/10/22 10:02:05;;;;;;;6.63;1.10;;;;;;;25.01;45.86;101135.41;5073292;28;20032;-60
2022/10/22 10:04:35;;;;;;;8.75;0.90;;;;;;;25.20;45.65;101137.22;5055238;28;20043;-60
2022/10/22 10:07:00;;;;;;;1.40;0.77;;;;;;;25.26;46.09;101147.31;5055367;28;20517;-60
2022/10/22 10:09:35;;;;;;;2.28;0.70;;;;;;;25.31;46.03;101139.28;5073156;28;20029;-60
2022/10/22 10:12:23;;;;;;;4.88;0.63;;;;;;;25.37;45.45;101143.91;5055405;28;20039;-60
2022/10/22 10:15:04;;;;;;;2.80;0.70;;;;;;;25.38;45.72;101149.16;5062121;28;20402;-60
2022/10/22 10:17:43;;;;;;;2.35;0.38;;;;;;;25.38;45.49;101145.56;5055212;28;20068;-60
2022/10/22 10:20:30;;;;;;;0.55;0.45;;;;;;;25.38;45.79;101153.78;5055122;28;20048;-61
2022/10/22 10:23:01;;;;;;;1.25;0.40;;;;;;;25.38;45.55;101151.91;5072921;28;20032;-60
2022/10/22 10:25:51;;;;;;;6.78;1.05;;;;;;;25.36;45.42;101156.78;5068005;28;20031;-60
2022/10/22 10:28:35;;;;;;;4.25;0.70;;;;;;;25.31;45.62;101167.56;5056495;28;20079;-60
2022/10/22 10:31:19;;;;;;;2.13;0.80;;;;;;;25.23;45.04;101166.97;5056765;28;20498;-60
2022/10/22 10:34:06;;;;;;;3.55;0.82;;;;;;;25.14;45.45;101181.94;5057012;28;20036;-60
2022/10/22 10:36:55;;;;;;;1.83;0.75;;;;;;;25.12;45.85;101178.59;5039125;28;20437;-60
2022/10/22 10:39:35;;;;;;;2.97;0.65;;;;;;;25.09;45.43;101182.63;5038987;28;20471;-60
2022/10/22 10:42:15;;;;;;;0.40;0.40;;;;;;;25.09;45.83;101184.50;5039053;28;20064;-60
2022/10/22 10:44:46;;;;;;;3.42;0.40;;;;;;;25.12;45.20;101186.81;5056742;28;20107;-60
2022/10/22 10:47:37;;;;;;;5.07;1.08;;;;;;;25.13;45.65;101196.72;5022433;28;20393;-60
2022/10/22 10:50:40;;;;;;;3.75;0.65;;;;;;;25.15;45.32;101197.34;5056809;28;20478;-61
2022/10/22 10:53:20;;;;;;;;;;;;;;;25.19;45.62;101193.13;5041923;28;20033;-61
2022/10/22 10:56:04;;;;;;;6.25;0.90;;;;;;;25.21;45.65;101199.25;5038577;28;19915;-60
2022/10/22 10:58:48;;;;;;;3.45;0.50;;;;;;;25.20;45.07;101197.56;5056801;28;20390;-61
2022/10/22 11:01:28;;;;;;;3.00;1.75;;;;;;;25.23;45.20;101197.13;5038562;28;20021;-60
2022/10/22 11:04:12;;;;;;;6.65;0.70;;;;;;;25.20;45.26;101203.03;5038691;28;20138;-60
2022/10/22 11:06:38;;;;;;;2.58;0.40;;;;;;;25.23;45.39;101200.72;5056376;28;20075;-60
2022/10/22 11:09:23;;;;;;;5.22;0.77;;;;;;;25.25;45.36;101203.22;5056364;28;20099;-61
2022/10/22 11:11:59;;;;;;;3.40;0.65;;;;;;;25.33;44.77;101195.59;5038485;28;20024;-60
2022/10/22 11:14:31;;;;;;;2.22;0.45;;;;;;;25.44;44.69;101194.91;5038413;28;20394;-60
2022/10/22 11:17:04;;;;;;;1.08;0.55;;;;;;;25.56;45.04;101186.88;5038327;28;20028;-60
2022/10/22 11:19:32;;;;;;;3.97;1.05;;;;;;;25.66;44.88;101181.75;5056019;28;20107;-60
2022/10/22 11:22:08;;;;;;;4.53;0.70;;;;;;;25.80;44.73;101188.00;5056108;28;20044;-60
2022/10/22 11:24:49;;;;;;;8.73;0.77;;;;;;;25.96;44.24;101177.34;5038363;28;20033;-61
2022/10/22 11:27:20;;;;;;;4.47;1.20;;;;;;;26.12;43.75;101180.63;5055951;28;20106;-60
2022/10/22 11:29:52;;;;;;;1.65;0.47;;;;;;;26.43;43.47;101183.38;5055922;28;20077;-60
2022/10/22 11:32:18;;;;;;;0.95;0.32;;;;;;;26.48;44.02;101181.66;5055578;28;20412;-60
2022/10/22 11:34:47;;;;;;;3.88;0.47;;;;;;;26.49;43.78;101168.75;5038169;28;20132;-60
2022/10/22 11:37:13;;;;;;;2.60;0.47;;;;;;;26.47;43.82;101173.63;5038010;28;20036;-61
2022/10/22 11:39:43;;;;;;;4.72;0.70;;;;;;;26.48;43.60;101164.31;5054513;28;20025;-60